Time,TemperatureF,DewpointF,PressureIn,WindDirection,WindDirectionDegrees,WindSpeedMPH,WindSpeedGustMPH,Humidity,HourlyPrecipIn,Conditions,Clouds,dailyrainin,SoftwareType,DateUTC
2013-02-21 00:00:00,33.5,17.3,30.14,NW,309,0.0,0.0,51,0.00,,CLR,0.00,VWS V14.01,2013-02-21 05:00:00,
2013-02-21 00:05:00,33.3,18.0,30.14,NW,309,0.0,0.0,53,0.00,,CLR,0.00,VWS V14.01,2013-02-21 05:05:00,
2013-02-21 00:10:00,33.1,17.0,30.14,NW,309,0.0,0.0,51,0.00,,CLR,0.00,VWS V14.01,2013-02-21 05:10:00,
2013-02-21 00:15:00,32.8,17.6,30.14,NW,309,0.0,0.0,53,0.00,,CLR,0.00,VWS V14.01,2013-02-21 05:15:00,
2013-02-21 00:20:00,32.6,17.4,30.14,NW,309,0.0,0.0,53,0.00,,CLR,0.00,VWS V14.01,2013-02-21 05:20:00,
2013-02-21 00:25:00,32.5,20.6,30.14,NW,309,0.0,0.0,61,0.00,,CLR,0.00,VWS V14.01,2013-02-21 05:25:00,
2013-02-21 00:30:00,32.2,19.9,30.14,NW,309,0.0,0.0,60,0.00,,CLR,0.00,VWS V14.01,2013-02-21 05:30:00,
2013-02-21 00:35:00,32.0,18.1,30.14,NW,309,0.0,0.0,56,0.00,,CLR,0.00,VWS V14.01,2013-02-21 05:35:00,
2013-02-21 00:40:00,32.0,19.7,30.15,NW,309,0.0,0.0,60,0.00,,CLR,0.00,VWS V14.01,2013-02-21 05:40:00,
2013-02-21 00:45:00,31.9,19.6,30.14,NW,309,0.0,0.0,60,0.00,,CLR,0.00,VWS V14.01,2013-02-21 05:45:00,
2013-02-21 00:50:00,31.6,20.5,30.14,NW,309,0.0,0.0,63,0.00,,CLR,0.00,VWS V14.01,2013-02-21 05:50:00,
2013-02-21 00:55:00,31.4,21.7,30.14,NW,309,0.0,0.0,67,0.00,,CLR,0.00,VWS V14.01,2013-02-21 05:55:00,
2013-02-21 01:00:00,31.1,20.0,30.13,NW,309,0.0,0.0,63,0.00,,CLR,0.00,VWS V14.01,2013-02-21 06:00:00,
2013-02-21 01:05:00,31.0,18.0,30.14,NW,309,0.0,0.0,58,0.00,,CLR,0.00,VWS V14.01,2013-02-21 06:05:00,
2013-02-21 01:10:00,31.1,19.6,30.14,NW,309,0.0,0.0,62,0.00,,CLR,0.00,VWS V14.01,2013-02-21 06:10:00,
2013-02-21 01:15:00,30.9,19.0,30.13,NW,309,0.0,0.0,61,0.00,,CLR,0.00,VWS V14.01,2013-02-21 06:15:00,
2013-02-21 01:20:00,30.5,19.4,30.13,NW,309,0.0,0.0,63,0.00,,CLR,0.00,VWS V14.01,2013-02-21 06:20:00,
2013-02-21 01:25:00,30.2,21.3,30.13,NW,309,0.0,0.0,69,0.00,,CLR,0.00,VWS V14.01,2013-02-21 06:25:00,
2013-02-21 01:30:00,29.9,21.0,30.14,NW,309,0.0,0.0,69,0.00,,CLR,0.00,VWS V14.01,2013-02-21 06:30:00,
2013-02-21 01:35:00,29.7,20.5,30.14,NW,309,0.0,0.0,68,0.00,,CLR,0.00,VWS V14.01,2013-02-21 06:35:00,
2013-02-21 01:40:00,29.6,20.0,30.13,NW,309,0.0,0.0,67,0.00,,CLR,0.00,VWS V14.01,2013-02-21 06:40:00,
2013-02-21 01:45:00,29.6,20.4,30.13,NW,309,0.0,0.0,68,0.00,,CLR,0.00,VWS V14.01,2013-02-21 06:45:00,
2013-02-21 01:50:00,29.4,20.5,30.14,NW,309,0.0,0.0,69,0.00,,CLR,0.00,VWS V14.01,2013-02-21 06:50:00,
2013-02-21 01:55:00,29.3,19.7,30.14,NW,309,0.0,0.0,67,0.00,,CLR,0.00,VWS V14.01,2013-02-21 06:55:00,
2013-02-21 02:00:00,29.2,21.6,30.14,NW,309,0.0,0.0,73,0.00,,CLR,0.00,VWS V14.01,2013-02-21 07:00:00,
2013-02-21 02:05:00,29.0,20.8,30.13,NW,309,0.0,0.0,71,0.00,,CLR,0.00,VWS V14.01,2013-02-21 07:05:00,
2013-02-21 02:10:00,29.0,19.8,30.13,NW,309,0.0,0.0,68,0.00,,CLR,0.00,VWS V14.01,2013-02-21 07:10:00,
2013-02-21 02:15:00,29.0,19.8,30.13,NW,309,0.0,0.0,68,0.00,,CLR,0.00,VWS V14.01,2013-02-21 07:15:00,
2013-02-21 02:20:00,29.0,19.4,30.13,NW,309,0.0,0.0,67,0.00,,CLR,0.00,VWS V14.01,2013-02-21 07:20:00,
2013-02-21 02:25:00,28.7,19.8,30.13,NW,309,0.0,0.0,69,0.00,,CLR,0.00,VWS V14.01,2013-02-21 07:25:00,
2013-02-21 02:30:00,28.4,20.5,30.13,NW,309,0.0,0.0,72,0.00,,CLR,0.00,VWS V14.01,2013-02-21 07:30:00,
2013-02-21 02:35:00,28.0,20.8,30.13,NW,309,0.0,0.0,74,0.00,,CLR,0.00,VWS V14.01,2013-02-21 07:35:00,
2013-02-21 02:40:00,27.8,20.3,30.14,NW,309,0.0,0.0,73,0.00,,CLR,0.00,VWS V14.01,2013-02-21 07:40:00,
2013-02-21 02:45:00,27.5,20.3,30.14,NW,309,0.0,0.0,74,0.00,,CLR,0.00,VWS V14.01,2013-02-21 07:45:00,
2013-02-21 02:50:00,27.4,20.2,30.14,NW,309,0.0,0.0,74,0.00,,CLR,0.00,VWS V14.01,2013-02-21 07:50:00,
2013-02-21 02:55:00,27.2,20.0,30.14,NW,309,0.0,0.0,74,0.00,,CLR,0.00,VWS V14.01,2013-02-21 07:55:00,
2013-02-21 03:00:00,27.1,20.2,30.14,NW,309,0.0,0.0,75,0.00,,CLR,0.00,VWS V14.01,2013-02-21 08:00:00,
2013-02-21 03:05:00,27.1,20.2,30.13,NW,309,0.0,0.0,75,0.00,,CLR,0.00,VWS V14.01,2013-02-21 08:05:00,
2013-02-21 03:10:00,27.1,19.6,30.13,NW,309,0.0,0.0,73,0.00,,CLR,0.00,VWS V14.01,2013-02-21 08:10:00,
2013-02-21 03:15:00,27.0,20.1,30.14,NW,309,0.0,0.0,75,0.00,,CLR,0.00,VWS V14.01,2013-02-21 08:15:00,
2013-02-21 03:20:00,26.7,19.9,30.14,West,277,0.0,4.0,75,0.00,,CLR,0.00,VWS V14.01,2013-02-21 08:20:00,
2013-02-21 03:25:00,26.5,20.3,30.13,West,277,0.0,4.0,77,0.00,,CLR,0.00,VWS V14.01,2013-02-21 08:25:00,
2013-02-21 03:30:00,26.4,19.6,30.14,West,277,0.0,0.0,75,0.00,,CLR,0.00,VWS V14.01,2013-02-21 08:30:00,
2013-02-21 03:35:00,26.6,19.8,30.14,West,277,0.0,0.0,75,0.00,,CLR,0.00,VWS V14.01,2013-02-21 08:35:00,
2013-02-21 03:40:00,26.8,19.3,30.14,West,277,0.0,0.0,73,0.00,,CLR,0.00,VWS V14.01,2013-02-21 08:40:00,
2013-02-21 03:45:00,27.0,18.2,30.14,West,277,0.0,0.0,69,0.00,,CLR,0.00,VWS V14.01,2013-02-21 08:45:00,
2013-02-21 03:50:00,27.2,18.4,30.14,West,277,0.0,0.0,69,0.00,,CLR,0.00,VWS V14.01,2013-02-21 08:50:00,
2013-02-21 03:55:00,27.3,19.5,30.14,West,277,0.0,0.0,72,0.00,,CLR,0.00,VWS V14.01,2013-02-21 08:55:00,
2013-02-21 04:00:00,27.3,18.8,30.14,West,277,0.0,0.0,70,0.00,,CLR,0.00,VWS V14.01,2013-02-21 09:00:00,
2013-02-21 04:05:00,27.2,19.4,30.14,West,277,0.0,0.0,72,0.00,,CLR,0.00,VWS V14.01,2013-02-21 09:05:00,
2013-02-21 04:10:00,27.2,18.4,30.14,West,277,0.0,0.0,69,0.00,,CLR,0.00,VWS V14.01,2013-02-21 09:10:00,
2013-02-21 04:15:00,27.2,19.1,30.14,West,277,0.0,0.0,71,0.00,,CLR,0.00,VWS V14.01,2013-02-21 09:15:00,
2013-02-21 04:20:00,27.0,19.2,30.15,West,277,0.0,0.0,72,0.00,,CLR,0.00,VWS V14.01,2013-02-21 09:20:00,
2013-02-21 04:25:00,26.8,18.7,30.15,West,277,0.0,0.0,71,0.00,,CLR,0.00,VWS V14.01,2013-02-21 09:25:00,
2013-02-21 04:30:00,26.8,17.7,30.15,West,277,0.0,0.0,68,0.00,,CLR,0.00,VWS V14.01,2013-02-21 09:30:00,
2013-02-21 04:35:00,27.0,18.5,30.14,West,277,0.0,0.0,70,0.00,,CLR,0.00,VWS V14.01,2013-02-21 09:35:00,
2013-02-21 04:40:00,27.1,18.0,30.14,West,277,0.0,0.0,68,0.00,,CLR,0.00,VWS V14.01,2013-02-21 09:40:00,
2013-02-21 04:45:00,27.0,19.5,30.15,West,277,0.0,0.0,73,0.00,,CLR,0.00,VWS V14.01,2013-02-21 09:45:00,
2013-02-21 04:50:00,25.9,19.1,30.15,West,277,0.0,0.0,75,0.00,,CLR,0.00,VWS V14.01,2013-02-21 09:50:00,
2013-02-21 04:55:00,25.5,18.7,30.15,West,277,0.0,0.0,75,0.00,,CLR,0.00,VWS V14.01,2013-02-21 09:55:00,
2013-02-21 05:00:00,25.5,19.0,30.15,West,277,0.0,0.0,76,0.00,,CLR,0.00,VWS V14.01,2013-02-21 10:00:00,
2013-02-21 05:05:00,25.3,19.1,30.15,West,277,0.0,0.0,77,0.00,,CLR,0.00,VWS V14.01,2013-02-21 10:05:00,
2013-02-21 05:10:00,25.1,18.9,30.15,West,277,0.0,0.0,77,0.00,,CLR,0.00,VWS V14.01,2013-02-21 10:10:00,
2013-02-21 05:15:00,25.1,18.9,30.16,West,277,0.0,0.0,77,0.00,,CLR,0.00,VWS V14.01,2013-02-21 10:15:00,
2013-02-21 05:20:00,25.2,19.3,30.16,West,277,0.0,0.0,78,0.00,,CLR,0.00,VWS V14.01,2013-02-21 10:20:00,
2013-02-21 05:25:00,25.0,19.1,30.16,West,277,0.0,0.0,78,0.00,,CLR,0.00,VWS V14.01,2013-02-21 10:25:00,
2013-02-21 05:30:00,24.7,19.1,30.16,West,277,0.0,0.0,79,0.00,,CLR,0.00,VWS V14.01,2013-02-21 10:30:00,
2013-02-21 05:35:00,24.3,18.7,30.16,West,277,0.0,0.0,79,0.00,,CLR,0.00,VWS V14.01,2013-02-21 10:35:00,
2013-02-21 05:40:00,24.3,19.3,30.16,West,277,0.0,0.0,81,0.00,,CLR,0.00,VWS V14.01,2013-02-21 10:40:00,
2013-02-21 05:45:00,24.2,19.2,30.17,West,277,0.0,0.0,81,0.00,,CLR,0.00,VWS V14.01,2013-02-21 10:45:00,
2013-02-21 05:50:00,23.9,18.9,30.17,West,277,0.0,0.0,81,0.00,,CLR,0.00,VWS V14.01,2013-02-21 10:50:00,
2013-02-21 05:55:00,23.5,18.8,30.17,West,277,0.0,0.0,82,0.00,,CLR,0.00,VWS V14.01,2013-02-21 10:55:00,
2013-02-21 06:00:00,23.3,18.6,30.17,West,277,0.0,0.0,82,0.00,,CLR,0.00,VWS V14.01,2013-02-21 11:00:00,
2013-02-21 06:05:00,23.2,18.5,30.17,West,277,0.0,0.0,82,0.00,,CLR,0.00,VWS V14.01,2013-02-21 11:05:00,
2013-02-21 06:10:00,23.2,18.5,30.17,West,277,0.0,0.0,82,0.00,,CLR,0.00,VWS V14.01,2013-02-21 11:10:00,
2013-02-21 06:15:00,23.0,18.6,30.17,West,277,0.0,0.0,83,0.00,,CLR,0.00,VWS V14.01,2013-02-21 11:15:00,
2013-02-21 06:20:00,22.9,18.8,30.18,West,277,0.0,0.0,84,0.00,,CLR,0.00,VWS V14.01,2013-02-21 11:20:00,
2013-02-21 06:25:00,22.9,18.8,30.18,West,277,0.0,0.0,84,0.00,,CLR,0.00,VWS V14.01,2013-02-21 11:25:00,
2013-02-21 06:30:00,22.8,18.7,30.18,West,277,0.0,0.0,84,0.00,,CLR,0.00,VWS V14.01,2013-02-21 11:30:00,
2013-02-21 06:35:00,22.5,18.4,30.18,West,277,0.0,0.0,84,0.00,,CLR,0.00,VWS V14.01,2013-02-21 11:35:00,
2013-02-21 06:40:00,22.3,18.2,30.18,West,277,0.0,0.0,84,0.00,,CLR,0.00,VWS V14.01,2013-02-21 11:40:00,
2013-02-21 06:45:00,22.2,18.4,30.19,West,277,0.0,0.0,85,0.00,,CLR,0.00,VWS V14.01,2013-02-21 11:45:00,
2013-02-21 06:50:00,22.0,18.2,30.19,West,277,0.0,0.0,85,0.00,,CLR,0.00,VWS V14.01,2013-02-21 11:50:00,
2013-02-21 06:55:00,21.8,18.0,30.19,West,277,0.0,0.0,85,0.00,,CLR,0.00,VWS V14.01,2013-02-21 11:55:00,
2013-02-21 07:00:00,21.7,18.2,30.19,West,277,0.0,0.0,86,0.00,,CLR,0.00,VWS V14.01,2013-02-21 12:00:00,
2013-02-21 07:05:00,21.8,18.3,30.19,West,277,0.0,0.0,86,0.00,,CLR,0.00,VWS V14.01,2013-02-21 12:05:00,
2013-02-21 07:10:00,22.2,18.4,30.19,West,269,0.0,0.0,85,0.00,,CLR,0.00,VWS V14.01,2013-02-21 12:10:00,
2013-02-21 07:15:00,21.9,18.1,30.19,West,269,0.0,1.0,85,0.00,,CLR,0.00,VWS V14.01,2013-02-21 12:15:00,
2013-02-21 07:20:00,21.7,17.6,30.20,West,269,0.0,1.0,84,0.00,,CLR,0.00,VWS V14.01,2013-02-21 12:20:00,
2013-02-21 07:25:00,21.7,18.2,30.20,West,269,0.0,1.0,86,0.00,,CLR,0.00,VWS V14.01,2013-02-21 12:25:00,
2013-02-21 07:30:00,21.9,18.4,30.20,West,269,0.0,0.0,86,0.00,,CLR,0.00,VWS V14.01,2013-02-21 12:30:00,
2013-02-21 07:35:00,22.2,18.7,30.20,West,269,0.0,0.0,86,0.00,,CLR,0.00,VWS V14.01,2013-02-21 12:35:00,
2013-02-21 07:40:00,22.8,19.5,30.20,West,269,0.0,0.0,87,0.00,,CLR,0.00,VWS V14.01,2013-02-21 12:40:00,
2013-02-21 07:45:00,23.5,19.7,30.20,West,269,0.0,0.0,85,0.00,,CLR,0.00,VWS V14.01,2013-02-21 12:45:00,
2013-02-21 07:50:00,24.1,19.7,30.20,West,269,0.0,0.0,83,0.00,,CLR,0.00,VWS V14.01,2013-02-21 12:50:00,
2013-02-21 07:55:00,25.4,18.6,30.20,West,269,0.0,0.0,75,0.00,,CLR,0.00,VWS V14.01,2013-02-21 12:55:00,
2013-02-21 08:00:00,26.9,18.8,30.20,West,269,0.0,0.0,71,0.00,,CLR,0.00,VWS V14.01,2013-02-21 13:00:00,
2013-02-21 08:05:00,28.0,18.5,30.20,West,269,0.0,0.0,67,0.00,,CLR,0.00,VWS V14.01,2013-02-21 13:05:00,
2013-02-21 08:10:00,29.0,19.1,30.20,West,269,0.0,0.0,66,0.00,,CLR,0.00,VWS V14.01,2013-02-21 13:10:00,
2013-02-21 08:15:00,30.2,18.8,30.20,West,269,0.0,0.0,62,0.00,,CLR,0.00,VWS V14.01,2013-02-21 13:15:00,
2013-02-21 08:20:00,31.5,20.0,30.20,West,269,0.0,0.0,62,0.00,,CLR,0.00,VWS V14.01,2013-02-21 13:20:00,
2013-02-21 08:25:00,32.7,20.0,30.20,West,269,0.0,0.0,59,0.00,,CLR,0.00,VWS V14.01,2013-02-21 13:25:00,
2013-02-21 08:30:00,33.3,21.7,30.21,West,269,0.0,0.0,62,0.00,,CLR,0.00,VWS V14.01,2013-02-21 13:30:00,
2013-02-21 08:35:00,33.5,20.3,30.20,West,279,0.0,1.0,58,0.00,,CLR,0.00,VWS V14.01,2013-02-21 13:35:00,
2013-02-21 08:40:00,33.5,20.7,30.21,WNW,291,3.0,5.0,59,0.00,,CLR,0.00,VWS V14.01,2013-02-21 13:40:00,
2013-02-21 08:45:00,33.6,19.6,30.21,NW,306,2.0,5.0,56,0.00,,CLR,0.00,VWS V14.01,2013-02-21 13:45:00,
2013-02-21 08:50:00,33.8,18.9,30.21,NW,324,1.0,5.0,54,0.00,,CLR,0.00,VWS V14.01,2013-02-21 13:50:00,
2013-02-21 08:55:00,33.9,19.0,30.21,NW,313,0.0,7.0,54,0.00,,CLR,0.00,VWS V14.01,2013-02-21 13:55:00,
2013-02-21 09:00:00,34.2,18.4,30.22,WSW,244,5.0,7.0,52,0.00,,CLR,0.00,VWS V14.01,2013-02-21 14:00:00,
2013-02-21 09:05:00,34.4,19.0,30.22,West,277,3.0,7.0,53,0.00,,CLR,0.00,VWS V14.01,2013-02-21 14:05:00,
2013-02-21 09:10:00,34.8,18.1,30.22,WNW,290,4.0,7.0,50,0.00,,CLR,0.00,VWS V14.01,2013-02-21 14:10:00,
2013-02-21 09:16:00,35.0,18.7,30.22,WNW,300,2.0,7.0,51,0.00,,CLR,0.00,VWS V14.01,2013-02-21 14:16:00,
2013-02-21 09:21:00,35.2,18.4,30.22,WNW,289,2.0,7.0,50,0.00,,CLR,0.00,VWS V14.01,2013-02-21 14:21:00,
2013-02-21 09:26:00,35.5,18.7,30.22,WSW,246,4.0,7.0,50,0.00,,CLR,0.00,VWS V14.01,2013-02-21 14:26:00,
2013-02-21 09:30:00,35.7,18.4,30.22,West,275,4.0,7.0,49,0.00,,BKN049,0.00,VWS V14.01,2013-02-21 14:30:00,
2013-02-21 09:31:00,35.7,17.5,30.21,West,275,3.0,5.0,47,0.00,,CLR,0.00,VWS V14.01,2013-02-21 14:31:00,
2013-02-21 09:36:00,35.7,17.0,30.21,West,274,4.0,6.0,46,0.00,,CLR,0.00,VWS V14.01,2013-02-21 14:36:00,
2013-02-21 09:41:00,35.9,17.6,30.21,West,259,5.0,6.0,47,0.00,,CLR,0.00,VWS V14.01,2013-02-21 14:41:00,
2013-02-21 09:46:00,36.0,17.2,30.21,WSW,258,0.0,6.0,46,0.00,,CLR,0.00,VWS V14.01,2013-02-21 14:46:00,
2013-02-21 09:51:00,36.7,18.4,30.22,WNW,302,2.0,6.0,47,0.00,,CLR,0.00,VWS V14.01,2013-02-21 14:51:00,
2013-02-21 09:56:00,36.9,17.0,30.22,WNW,298,2.0,6.0,44,0.00,,CLR,0.00,VWS V14.01,2013-02-21 14:56:00,
2013-02-21 10:00:00,37.1,17.7,30.22,NW,324,1.0,6.0,45,0.00,,BKN049,0.00,VWS V14.01,2013-02-21 15:00:00,
2013-02-21 10:01:00,37.2,17.8,30.22,NW,321,3.0,4.0,45,0.00,,CLR,0.00,VWS V14.01,2013-02-21 15:01:00,
2013-02-21 10:06:00,37.6,17.1,30.22,WNW,295,3.0,8.0,43,0.00,,CLR,0.00,VWS V14.01,2013-02-21 15:06:00,
2013-02-21 10:11:00,37.3,16.9,30.22,North,5,4.0,8.0,43,0.00,,CLR,0.00,VWS V14.01,2013-02-21 15:11:00,
2013-02-21 10:16:00,37.8,17.3,30.22,NW,307,3.0,8.0,43,0.00,,CLR,0.00,VWS V14.01,2013-02-21 15:16:00,
2013-02-21 10:21:00,37.9,16.3,30.22,West,265,4.0,9.0,41,0.00,,CLR,0.00,VWS V14.01,2013-02-21 15:21:00,
2013-02-21 10:26:00,38.3,18.3,30.22,WNW,298,2.0,9.0,44,0.00,,CLR,0.00,VWS V14.01,2013-02-21 15:26:00,
2013-02-21 10:30:00,38.6,17.0,30.22,NW,322,2.0,9.0,41,0.00,,BKN049,0.00,VWS V14.01,2013-02-21 15:30:00,
2013-02-21 10:31:00,38.7,17.6,30.22,NW,318,2.0,3.0,42,0.00,,CLR,0.00,VWS V14.01,2013-02-21 15:31:00,
2013-02-21 10:36:00,39.0,18.4,30.22,WNW,292,3.0,6.0,43,0.00,,CLR,0.00,VWS V14.01,2013-02-21 15:36:00,
2013-02-21 10:41:00,39.1,18.0,30.22,WNW,291,5.0,7.0,42,0.00,,CLR,0.00,VWS V14.01,2013-02-21 15:41:00,
2013-02-21 10:46:00,39.3,18.1,30.22,West,277,3.0,7.0,42,0.00,,CLR,0.00,VWS V14.01,2013-02-21 15:46:00,
2013-02-21 10:51:00,39.2,16.9,30.22,WNW,286,5.0,9.0,40,0.00,,CLR,0.00,VWS V14.01,2013-02-21 15:51:00,
2013-02-21 10:56:00,39.5,17.2,30.22,WNW,287,5.0,10.0,40,0.00,,CLR,0.00,VWS V14.01,2013-02-21 15:56:00,
2013-02-21 11:00:00,39.8,16.9,30.22,West,271,3.0,10.0,39,0.00,,BKN049,0.00,VWS V14.01,2013-02-21 16:00:00,
2013-02-21 11:01:00,39.8,17.5,30.22,WNW,291,4.0,4.0,40,0.00,,CLR,0.00,VWS V14.01,2013-02-21 16:01:00,
2013-02-21 11:06:00,40.3,17.3,30.21,NE,34,0.0,4.0,39,0.00,,CLR,0.00,VWS V14.01,2013-02-21 16:06:00,
2013-02-21 11:11:00,40.4,18.6,30.21,NNW,333,1.0,4.0,41,0.00,,CLR,0.00,VWS V14.01,2013-02-21 16:11:00,
2013-02-21 11:16:00,40.9,19.0,30.21,North,360,1.0,4.0,41,0.00,,CLR,0.00,VWS V14.01,2013-02-21 16:16:00,
2013-02-21 11:21:00,41.4,17.7,30.21,North,5,3.0,6.0,38,0.00,,CLR,0.00,VWS V14.01,2013-02-21 16:21:00,
2013-02-21 11:26:00,41.6,17.3,30.21,WNW,294,2.0,6.0,37,0.00,,CLR,0.00,VWS V14.01,2013-02-21 16:26:00,
2013-02-21 11:30:00,41.5,17.2,30.21,West,279,3.0,9.0,37,0.00,,BKN049,0.00,VWS V14.01,2013-02-21 16:30:00,
2013-02-21 11:31:00,41.6,18.5,30.21,NW,320,2.0,4.0,39,0.00,,CLR,0.00,VWS V14.01,2013-02-21 16:31:00,
2013-02-21 11:36:00,42.1,17.7,30.20,WNW,292,3.0,5.0,37,0.00,,CLR,0.00,VWS V14.01,2013-02-21 16:36:00,
2013-02-21 11:41:00,42.2,17.8,30.21,NW,315,0.0,6.0,37,0.00,,CLR,0.00,VWS V14.01,2013-02-21 16:41:00,
2013-02-21 11:46:00,42.3,18.5,30.21,South,190,4.0,6.0,38,0.00,,CLR,0.00,VWS V14.01,2013-02-21 16:46:00,
2013-02-21 11:51:00,42.4,18.0,30.20,West,279,4.0,9.0,37,0.00,,CLR,0.00,VWS V14.01,2013-02-21 16:51:00,
2013-02-21 11:56:00,42.6,18.8,30.20,West,273,6.0,10.0,38,0.00,,CLR,0.00,VWS V14.01,2013-02-21 16:56:00,
2013-02-21 12:00:00,43.2,19.3,30.20,West,259,5.0,10.0,38,0.00,,BKN049,0.00,VWS V14.01,2013-02-21 17:00:00,
2013-02-21 12:01:00,43.3,18.2,30.20,West,266,3.0,6.0,36,0.00,,CLR,0.00,VWS V14.01,2013-02-21 17:01:00,
2013-02-21 12:06:00,43.4,17.6,30.20,West,265,1.0,10.0,35,0.00,,CLR,0.00,VWS V14.01,2013-02-21 17:06:00,
2013-02-21 12:11:00,43.6,19.1,30.20,NNW,333,2.0,10.0,37,0.00,,CLR,0.00,VWS V14.01,2013-02-21 17:11:00,
2013-02-21 12:16:00,44.1,17.5,30.20,WSW,237,6.0,12.0,34,0.00,,CLR,0.00,VWS V14.01,2013-02-21 17:16:00,
2013-02-21 12:21:00,44.4,19.1,30.19,NW,324,3.0,12.0,36,0.00,,CLR,0.00,VWS V14.01,2013-02-21 17:21:00,
2013-02-21 12:26:00,45.0,18.3,30.19,NNE,31,0.0,12.0,34,0.00,,CLR,0.00,VWS V14.01,2013-02-21 17:26:00,
2013-02-21 12:30:00,45.2,18.5,30.19,North,360,1.0,12.0,34,0.00,,BKN049,0.00,VWS V14.01,2013-02-21 17:30:00,
2013-02-21 12:31:00,45.4,18.7,30.19,NW,306,3.0,3.0,34,0.00,,CLR,0.00,VWS V14.01,2013-02-21 17:31:00,
2013-02-21 12:36:00,45.7,18.3,30.19,WNW,284,7.0,7.0,33,0.00,,CLR,0.00,VWS V14.01,2013-02-21 17:36:00,
2013-02-21 12:41:00,45.5,18.1,30.19,NW,324,1.0,8.0,33,0.00,,CLR,0.00,VWS V14.01,2013-02-21 17:41:00,
2013-02-21 12:46:00,45.6,18.2,30.19,NW,324,5.0,8.0,33,0.00,,CLR,0.00,VWS V14.01,2013-02-21 17:46:00,
2013-02-21 12:51:00,45.8,18.4,30.19,WNW,291,0.0,8.0,33,0.00,,CLR,0.00,VWS V14.01,2013-02-21 17:51:00,
2013-02-21 12:56:00,46.6,17.6,30.18,WSW,247,2.0,8.0,31,0.00,,CLR,0.00,VWS V14.01,2013-02-21 17:56:00,
2013-02-21 13:00:00,46.6,19.0,30.18,NE,47,2.0,8.0,33,0.00,,BKN049,0.00,VWS V14.01,2013-02-21 18:00:00,
2013-02-21 13:01:00,46.7,19.8,30.18,NE,51,0.0,3.0,34,0.00,,CLR,0.00,VWS V14.01,2013-02-21 18:01:00,
2013-02-21 13:06:00,47.2,19.6,30.18,NW,306,4.0,7.0,33,0.00,,CLR,0.00,VWS V14.01,2013-02-21 18:06:00,
2013-02-21 13:11:00,47.9,19.5,30.17,NW,324,3.0,8.0,32,0.00,,CLR,0.00,VWS V14.01,2013-02-21 18:11:00,
2013-02-21 13:16:00,47.4,17.5,30.17,West,263,4.0,8.0,30,0.00,,CLR,0.00,VWS V14.01,2013-02-21 18:16:00,
2013-02-21 13:21:00,47.1,20.2,30.17,WSW,238,4.0,8.0,34,0.00,,CLR,0.00,VWS V14.01,2013-02-21 18:21:00,
2013-02-21 13:26:00,47.5,19.1,30.16,NW,325,3.0,8.0,32,0.00,,CLR,0.00,VWS V14.01,2013-02-21 18:26:00,
2013-02-21 13:30:00,47.8,20.1,30.16,SW,221,0.0,8.0,33,0.00,,BKN049,0.00,VWS V14.01,2013-02-21 18:30:00,
2013-02-21 13:31:00,47.9,18.7,30.16,NNE,25,2.0,5.0,31,0.00,,CLR,0.00,VWS V14.01,2013-02-21 18:31:00,
2013-02-21 13:36:00,48.5,20.0,30.16,WNW,294,4.0,5.0,32,0.00,,CLR,0.00,VWS V14.01,2013-02-21 18:36:00,
2013-02-21 13:41:00,48.6,19.4,30.15,West,271,1.0,5.0,31,0.00,,CLR,0.00,VWS V14.01,2013-02-21 18:41:00,
2013-02-21 13:46:00,48.3,18.3,30.15,WNW,286,0.0,5.0,30,0.00,,CLR,0.00,VWS V14.01,2013-02-21 18:46:00,
2013-02-21 13:51:00,48.3,17.5,30.15,NNW,346,0.0,5.0,29,0.00,,CLR,0.00,VWS V14.01,2013-02-21 18:51:00,
2013-02-21 13:56:00,48.3,19.1,30.15,SE,134,0.0,5.0,31,0.00,,CLR,0.00,VWS V14.01,2013-02-21 18:56:00,
2013-02-21 14:00:00,48.4,19.2,30.14,SE,143,1.0,5.0,31,0.00,,BKN049,0.00,VWS V14.01,2013-02-21 19:00:00,
2013-02-21 14:01:00,48.5,19.3,30.14,SE,144,0.0,1.0,31,0.00,,CLR,0.00,VWS V14.01,2013-02-21 19:01:00,
2013-02-21 14:06:00,49.1,19.8,30.13,WSW,237,6.0,6.0,31,0.00,,CLR,0.00,VWS V14.01,2013-02-21 19:06:00,
2013-02-21 14:11:00,49.7,18.8,30.13,WNW,296,3.0,6.0,29,0.00,,CLR,0.00,VWS V14.01,2013-02-21 19:11:00,
2013-02-21 14:16:00,49.8,19.6,30.13,WNW,286,1.0,6.0,30,0.00,,CLR,0.00,VWS V14.01,2013-02-21 19:16:00,
2013-02-21 14:21:00,49.7,18.8,30.13,WSW,240,2.0,6.0,29,0.00,,CLR,0.00,VWS V14.01,2013-02-21 19:21:00,
2013-02-21 14:26:00,49.9,20.5,30.13,WNW,283,2.0,6.0,31,0.00,,CLR,0.00,VWS V14.01,2013-02-21 19:26:00,
2013-02-21 14:30:00,50.2,19.2,30.13,NE,34,2.0,6.0,29,0.00,,BKN049,0.00,VWS V14.01,2013-02-21 19:30:00,
2013-02-21 14:31:00,50.3,18.5,30.13,NW,306,2.0,4.0,28,0.00,,CLR,0.00,VWS V14.01,2013-02-21 19:31:00,
2013-02-21 14:36:00,50.6,17.9,30.13,WNW,286,1.0,4.0,27,0.00,,CLR,0.00,VWS V14.01,2013-02-21 19:36:00,
2013-02-21 14:41:00,50.8,18.9,30.13,WNW,303,3.0,7.0,28,0.00,,CLR,0.00,VWS V14.01,2013-02-21 19:41:00,
2013-02-21 14:46:00,50.9,19.8,30.13,NNE,26,1.0,7.0,29,0.00,,CLR,0.00,VWS V14.01,2013-02-21 19:46:00,
2013-02-21 14:51:00,51.3,17.6,30.12,WNW,296,2.0,7.0,26,0.00,,CLR,0.00,VWS V14.01,2013-02-21 19:51:00,
2013-02-21 14:56:00,51.3,18.5,30.12,North,11,3.0,7.0,27,0.00,,CLR,0.00,VWS V14.01,2013-02-21 19:56:00,
2013-02-21 15:00:00,51.6,19.6,30.12,NW,323,2.0,7.0,28,0.00,,BKN049,0.00,VWS V14.01,2013-02-21 20:00:00,
2013-02-21 15:01:00,51.5,17.8,30.12,NNW,340,2.0,5.0,26,0.00,,CLR,0.00,VWS V14.01,2013-02-21 20:01:00,
2013-02-21 15:06:00,51.7,17.9,30.11,North,5,1.0,5.0,26,0.00,,CLR,0.00,VWS V14.01,2013-02-21 20:06:00,
2013-02-21 15:11:00,51.7,18.8,30.11,NNW,345,0.0,5.0,27,0.00,,CLR,0.00,VWS V14.01,2013-02-21 20:11:00,
2013-02-21 15:16:00,51.8,19.8,30.12,West,259,5.0,7.0,28,0.00,,CLR,0.00,VWS V14.01,2013-02-21 20:16:00,
2013-02-21 15:21:00,51.7,17.9,30.12,WSW,242,2.0,7.0,26,0.00,,CLR,0.00,VWS V14.01,2013-02-21 20:21:00,
2013-02-21 15:26:00,51.9,19.8,30.13,NNE,28,1.0,7.0,28,0.00,,CLR,0.00,VWS V14.01,2013-02-21 20:26:00,
2013-02-21 15:30:00,52.3,19.3,30.13,North,5,0.0,7.0,27,0.00,,BKN049,0.00,VWS V14.01,2013-02-21 20:30:00,
2013-02-21 15:31:00,52.4,19.4,30.13,NNE,17,0.0,3.0,27,0.00,,CLR,0.00,VWS V14.01,2013-02-21 20:31:00,
2013-02-21 15:36:00,52.7,18.8,30.14,NNE,28,2.0,3.0,26,0.00,,CLR,0.00,VWS V14.01,2013-02-21 20:36:00,
2013-02-21 15:41:00,52.8,18.0,30.14,West,259,5.0,7.0,25,0.00,,CLR,0.00,VWS V14.01,2013-02-21 20:41:00,
2013-02-21 15:46:00,52.4,18.5,30.14,North,351,3.0,7.0,26,0.00,,CLR,0.00,VWS V14.01,2013-02-21 20:46:00,
2013-02-21 15:51:00,52.2,19.2,30.13,NW,305,0.0,7.0,27,0.00,,CLR,0.00,VWS V14.01,2013-02-21 20:51:00,
2013-02-21 15:56:00,52.6,18.7,30.13,NNE,14,2.0,7.0,26,0.00,,CLR,0.00,VWS V14.01,2013-02-21 20:56:00,
2013-02-21 16:00:00,52.7,18.8,30.13,NNE,30,2.0,7.0,26,0.00,,BKN049,0.00,VWS V14.01,2013-02-21 21:00:00,
2013-02-21 16:01:00,52.6,19.6,30.13,NW,317,1.0,2.0,27,0.00,,CLR,0.00,VWS V14.01,2013-02-21 21:01:00,
2013-02-21 16:06:00,52.8,20.6,30.13,NNE,18,3.0,3.0,28,0.00,,CLR,0.00,VWS V14.01,2013-02-21 21:06:00,
2013-02-21 16:11:00,53.1,20.9,30.14,North,355,1.0,3.0,28,0.00,,CLR,0.00,VWS V14.01,2013-02-21 21:11:00,
2013-02-21 16:16:00,53.1,20.0,30.14,NNE,30,2.0,3.0,27,0.00,,CLR,0.00,VWS V14.01,2013-02-21 21:16:00,
2013-02-21 16:21:00,53.0,19.0,30.14,NNW,330,2.0,3.0,26,0.00,,CLR,0.00,VWS V14.01,2013-02-21 21:21:00,
2013-02-21 16:26:00,52.8,19.8,30.14,NNE,13,1.0,4.0,27,0.00,,CLR,0.00,VWS V14.01,2013-02-21 21:26:00,
2013-02-21 16:30:00,52.7,19.7,30.13,NNE,16,0.0,4.0,27,0.00,,BKN049,0.00,VWS V14.01,2013-02-21 21:30:00,
2013-02-21 16:31:00,52.6,18.7,30.13,NNE,16,0.0,1.0,26,0.00,,CLR,0.00,VWS V14.01,2013-02-21 21:31:00,
2013-02-21 16:36:00,52.9,19.0,30.13,NNE,25,0.0,1.0,26,0.00,,CLR,0.00,VWS V14.01,2013-02-21 21:36:00,
2013-02-21 16:41:00,53.0,19.0,30.14,ENE,76,0.0,1.0,26,0.00,,CLR,0.00,VWS V14.01,2013-02-21 21:41:00,
2013-02-21 16:46:00,53.1,20.0,30.15,NE,51,0.0,2.0,27,0.00,,CLR,0.00,VWS V14.01,2013-02-21 21:46:00,
2013-02-21 16:51:00,52.8,19.8,30.14,NE,46,2.0,2.0,27,0.00,,CLR,0.00,VWS V14.01,2013-02-21 21:51:00,
2013-02-21 16:56:00,52.2,20.1,30.15,NE,36,2.0,3.0,28,0.00,,CLR,0.00,VWS V14.01,2013-02-21 21:56:00,
2013-02-21 17:00:00,51.9,19.8,30.16,NE,36,0.0,3.0,28,0.00,,BKN049,0.00,VWS V14.01,2013-02-21 22:00:00,
2013-02-21 17:01:00,51.7,19.7,30.16,NE,36,0.0,2.0,28,0.00,,CLR,0.00,VWS V14.01,2013-02-21 22:01:00,
2013-02-21 17:06:00,51.3,18.5,30.17,NE,36,0.0,2.0,27,0.00,,CLR,0.00,VWS V14.01,2013-02-21 22:06:00,
2013-02-21 17:11:00,50.9,20.6,30.17,NE,36,0.0,2.0,30,0.00,,CLR,0.00,VWS V14.01,2013-02-21 22:11:00,
2013-02-21 17:16:00,50.4,20.9,30.17,NE,36,1.0,2.0,31,0.00,,CLR,0.00,VWS V14.01,2013-02-21 22:16:00,
2013-02-21 17:21:00,50.0,22.0,30.17,NE,36,0.0,2.0,33,0.00,,CLR,0.00,VWS V14.01,2013-02-21 22:21:00,
2013-02-21 17:26:00,49.6,21.7,30.16,NE,35,0.0,2.0,33,0.00,,CLR,0.00,VWS V14.01,2013-02-21 22:26:00,
2013-02-21 17:30:00,49.5,20.9,30.16,NE,35,0.0,2.0,32,0.00,,BKN049,0.00,VWS V14.01,2013-02-21 22:30:00,
2013-02-21 17:31:00,49.3,20.7,30.16,NE,35,0.0,1.0,32,0.00,,CLR,0.00,VWS V14.01,2013-02-21 22:31:00,
2013-02-21 17:36:00,49.0,21.2,30.16,NE,35,1.0,2.0,33,0.00,,CLR,0.00,VWS V14.01,2013-02-21 22:36:00,
2013-02-21 17:41:00,48.5,21.4,30.16,NE,35,0.0,2.0,34,0.00,,CLR,0.00,VWS V14.01,2013-02-21 22:41:00,
2013-02-21 17:46:00,48.2,21.2,30.17,NE,35,0.0,2.0,34,0.00,,CLR,0.00,VWS V14.01,2013-02-21 22:46:00,
2013-02-21 17:51:00,47.8,22.2,30.16,NNE,32,0.0,2.0,36,0.00,,CLR,0.00,VWS V14.01,2013-02-21 22:51:00,
2013-02-21 17:56:00,47.2,21.6,30.17,NNE,32,0.0,2.0,36,0.00,,CLR,0.00,VWS V14.01,2013-02-21 22:56:00,
2013-02-21 18:00:00,46.9,20.7,30.17,NNE,32,0.0,2.0,35,0.00,,BKN049,0.00,VWS V14.01,2013-02-21 23:00:00,
2013-02-21 18:02:00,46.8,20.6,30.17,NNE,32,0.0,0.0,35,0.00,,CLR,0.00,VWS V14.01,2013-02-21 23:02:00,
2013-02-21 18:07:00,46.5,21.6,30.18,NNE,32,0.0,0.0,37,0.00,,CLR,0.00,VWS V14.01,2013-02-21 23:07:00,
2013-02-21 18:12:00,46.2,21.4,30.18,NNE,32,0.0,0.0,37,0.00,,CLR,0.00,VWS V14.01,2013-02-21 23:12:00,
2013-02-21 18:17:00,45.6,23.9,30.18,NNE,32,0.0,0.0,42,0.00,,CLR,0.00,VWS V14.01,2013-02-21 23:17:00,
2013-02-21 18:22:00,45.0,23.3,30.19,NNE,32,0.0,0.0,42,0.00,,CLR,0.00,VWS V14.01,2013-02-21 23:22:00,
2013-02-21 18:27:00,44.5,21.7,30.19,NNE,32,0.0,0.0,40,0.00,,CLR,0.00,VWS V14.01,2013-02-21 23:27:00,
2013-02-21 18:30:00,44.3,20.9,30.19,NNE,32,0.0,0.0,39,0.00,,BKN049,0.00,VWS V14.01,2013-02-21 23:30:00,
2013-02-21 18:32:00,44.1,21.3,30.18,NNE,32,0.0,0.0,40,0.00,,CLR,0.00,VWS V14.01,2013-02-21 23:32:00,
2013-02-21 18:37:00,43.6,22.0,30.18,NNE,32,0.0,0.0,42,0.00,,CLR,0.00,VWS V14.01,2013-02-21 23:37:00,
2013-02-21 18:42:00,43.2,22.2,30.18,NNE,32,1.0,1.0,43,0.00,,CLR,0.00,VWS V14.01,2013-02-21 23:42:00,
2013-02-21 18:47:00,42.9,21.4,30.18,NNE,32,0.0,1.0,42,0.00,,CLR,0.00,VWS V14.01,2013-02-21 23:47:00,
2013-02-21 18:52:00,42.9,22.0,30.18,NNE,32,0.0,1.0,43,0.00,,CLR,0.00,VWS V14.01,2013-02-21 23:52:00,
2013-02-21 18:57:00,42.7,24.9,30.18,NNE,32,0.0,1.0,49,0.00,,CLR,0.00,VWS V14.01,2013-02-21 23:57:00,
2013-02-21 19:00:00,42.3,25.0,30.18,NNE,32,0.0,1.0,50,0.00,,BKN049,0.00,VWS V14.01,2013-02-22 00:00:00,
2013-02-21 19:02:00,41.9,26.0,30.18,NNE,32,0.0,0.0,53,0.00,,CLR,0.00,VWS V14.01,2013-02-22 00:02:00,
2013-02-21 19:07:00,41.1,25.3,30.17,NNE,32,2.0,3.0,53,0.00,,CLR,0.00,VWS V14.01,2013-02-22 00:07:00,
2013-02-21 19:12:00,40.8,23.6,30.18,NNE,32,0.0,3.0,50,0.00,,CLR,0.00,VWS V14.01,2013-02-22 00:12:00,
2013-02-21 19:17:00,41.2,22.0,30.18,NE,36,0.0,3.0,46,0.00,,CLR,0.00,VWS V14.01,2013-02-22 00:17:00,
2013-02-21 19:22:00,41.5,22.3,30.19,NE,36,0.0,3.0,46,0.00,,CLR,0.00,VWS V14.01,2013-02-22 00:22:00,
2013-02-21 19:27:00,41.6,25.3,30.19,NE,36,0.0,3.0,52,0.00,,CLR,0.00,VWS V14.01,2013-02-22 00:27:00,
2013-02-21 19:30:00,41.4,26.0,30.20,NE,36,0.0,3.0,54,0.00,,BKN049,0.00,VWS V14.01,2013-02-22 00:30:00,
2013-02-21 19:32:00,41.1,26.6,30.20,NE,36,0.0,0.0,56,0.00,,CLR,0.00,VWS V14.01,2013-02-22 00:32:00,
2013-02-21 19:37:00,40.6,24.8,30.20,NE,36,0.0,0.0,53,0.00,,CLR,0.00,VWS V14.01,2013-02-22 00:37:00,
2013-02-21 19:42:00,40.3,25.0,30.21,NE,36,0.0,0.0,54,0.00,,CLR,0.00,VWS V14.01,2013-02-22 00:42:00,
2013-02-21 19:47:00,40.0,25.1,30.21,NE,36,0.0,0.0,55,0.00,,CLR,0.00,VWS V14.01,2013-02-22 00:47:00,
2013-02-21 19:52:00,40.0,23.8,30.21,NE,36,0.0,0.0,52,0.00,,CLR,0.00,VWS V14.01,2013-02-22 00:52:00,
2013-02-21 19:57:00,40.1,24.8,30.21,NE,36,0.0,0.0,54,0.00,,CLR,0.00,VWS V14.01,2013-02-22 00:57:00,
2013-02-21 20:00:00,40.1,24.4,30.21,NE,36,0.0,0.0,53,0.00,,BKN049,0.00,VWS V14.01,2013-02-22 01:00:00,
2013-02-21 20:02:00,40.1,25.2,30.21,NE,36,0.0,0.0,55,0.00,,CLR,0.00,VWS V14.01,2013-02-22 01:02:00,
2013-02-21 20:07:00,40.0,24.7,30.21,NE,36,0.0,0.0,54,0.00,,CLR,0.00,VWS V14.01,2013-02-22 01:07:00,
2013-02-21 20:12:00,39.9,24.2,30.21,NE,36,0.0,0.0,53,0.00,,CLR,0.00,VWS V14.01,2013-02-22 01:12:00,
2013-02-21 20:17:00,39.8,22.7,30.21,NE,36,0.0,0.0,50,0.00,,CLR,0.00,VWS V14.01,2013-02-22 01:17:00,
2013-02-21 20:22:00,39.8,25.4,30.21,NE,36,0.0,0.0,56,0.00,,CLR,0.00,VWS V14.01,2013-02-22 01:22:00,
2013-02-21 20:27:00,39.6,24.8,30.21,NE,36,0.0,0.0,55,0.00,,CLR,0.00,VWS V14.01,2013-02-22 01:27:00,
2013-02-21 20:30:00,39.5,24.7,30.21,NE,36,0.0,0.0,55,0.00,,BKN049,0.00,VWS V14.01,2013-02-22 01:30:00,
2013-02-21 20:32:00,39.4,22.8,30.21,NE,36,0.0,0.0,51,0.00,,CLR,0.00,VWS V14.01,2013-02-22 01:32:00,
2013-02-21 20:37:00,39.4,23.7,30.22,NE,36,0.0,0.0,53,0.00,,CLR,0.00,VWS V14.01,2013-02-22 01:37:00,
2013-02-21 20:42:00,39.2,24.8,30.21,NE,36,0.0,0.0,56,0.00,,CLR,0.00,VWS V14.01,2013-02-22 01:42:00,
2013-02-21 20:47:00,39.2,22.1,30.21,NE,36,0.0,0.0,50,0.00,,CLR,0.00,VWS V14.01,2013-02-22 01:47:00,
2013-02-21 20:52:00,39.3,22.2,30.21,NE,36,0.0,0.0,50,0.00,,CLR,0.00,VWS V14.01,2013-02-22 01:52:00,
2013-02-21 20:57:00,39.5,21.5,30.20,NE,41,0.0,2.0,48,0.00,,CLR,0.00,VWS V14.01,2013-02-22 01:57:00,
2013-02-21 21:00:00,39.7,21.6,30.20,East,80,0.0,2.0,48,0.00,,BKN049,0.00,VWS V14.01,2013-02-22 02:00:00,
2013-02-21 21:02:00,39.8,22.2,30.20,East,80,0.0,0.0,49,0.00,,CLR,0.00,VWS V14.01,2013-02-22 02:02:00,
2013-02-21 21:07:00,39.9,22.3,30.20,East,80,0.0,0.0,49,0.00,,CLR,0.00,VWS V14.01,2013-02-22 02:07:00,
2013-02-21 21:12:00,40.0,21.4,30.21,East,82,0.0,0.0,47,0.00,,CLR,0.00,VWS V14.01,2013-02-22 02:12:00,
2013-02-21 21:17:00,39.9,24.6,30.21,ENE,69,0.0,0.0,54,0.00,,CLR,0.00,VWS V14.01,2013-02-22 02:17:00,
2013-02-21 21:22:00,39.7,24.4,30.21,ENE,69,0.0,0.0,54,0.00,,CLR,0.00,VWS V14.01,2013-02-22 02:22:00,
2013-02-21 21:27:00,39.5,24.2,30.21,NNE,32,0.0,1.0,54,0.00,,CLR,0.00,VWS V14.01,2013-02-22 02:27:00,
2013-02-21 21:30:00,39.5,22.9,30.22,NNE,33,0.0,1.0,51,0.00,,BKN049,0.00,VWS V14.01,2013-02-22 02:30:00,
2013-02-21 21:32:00,39.7,23.1,30.23,NNE,31,0.0,0.0,51,0.00,,CLR,0.00,VWS V14.01,2013-02-22 02:32:00,
2013-02-21 21:37:00,40.0,22.4,30.23,East,98,0.0,1.0,49,0.00,,CLR,0.00,VWS V14.01,2013-02-22 02:37:00,
2013-02-21 21:42:00,40.4,21.8,30.23,East,91,0.0,1.0,47,0.00,,CLR,0.00,VWS V14.01,2013-02-22 02:42:00,
2013-02-21 21:47:00,40.7,23.0,30.23,East,91,0.0,1.0,49,0.00,,CLR,0.00,VWS V14.01,2013-02-22 02:47:00,
2013-02-21 21:52:00,40.9,24.2,30.22,ENE,69,2.0,7.0,51,0.00,,CLR,0.00,VWS V14.01,2013-02-22 02:52:00,
2013-02-21 21:57:00,41.1,21.9,30.22,NE,56,3.0,7.0,46,0.00,,CLR,0.00,VWS V14.01,2013-02-22 02:57:00,
2013-02-21 22:00:00,41.3,22.1,30.22,ENE,66,2.0,7.0,46,0.00,,BKN049,0.00,VWS V14.01,2013-02-22 03:00:00,
2013-02-21 22:02:00,41.5,22.8,30.22,NE,34,0.0,4.0,47,0.00,,CLR,0.00,VWS V14.01,2013-02-22 03:02:00,
2013-02-21 22:07:00,41.6,21.9,30.22,NE,37,3.0,9.0,45,0.00,,CLR,0.00,VWS V14.01,2013-02-22 03:07:00,
2013-02-21 22:12:00,41.6,22.4,30.22,ENE,59,2.0,9.0,46,0.00,,CLR,0.00,VWS V14.01,2013-02-22 03:12:00,
2013-02-21 22:17:00,41.6,21.9,30.23,South,178,1.0,9.0,45,0.00,,CLR,0.00,VWS V14.01,2013-02-22 03:17:00,
2013-02-21 22:22:00,41.5,21.8,30.24,ENE,57,3.0,9.0,45,0.00,,CLR,0.00,VWS V14.01,2013-02-22 03:22:00,
2013-02-21 22:27:00,41.4,21.7,30.24,NE,46,0.0,9.0,45,0.00,,CLR,0.00,VWS V14.01,2013-02-22 03:27:00,
2013-02-21 22:30:00,41.3,21.6,30.24,NE,49,3.0,9.0,45,0.00,,BKN049,0.00,VWS V14.01,2013-02-22 03:30:00,
2013-02-21 22:32:00,41.3,21.6,30.24,ENE,74,1.0,8.0,45,0.00,,CLR,0.00,VWS V14.01,2013-02-22 03:32:00,
2013-02-21 22:37:00,41.2,21.0,30.25,ESE,112,3.0,8.0,44,0.00,,CLR,0.00,VWS V14.01,2013-02-22 03:37:00,
2013-02-21 22:42:00,41.0,21.3,30.26,East,91,6.0,8.0,45,0.00,,CLR,0.00,VWS V14.01,2013-02-22 03:42:00,
2013-02-21 22:47:00,41.0,20.8,30.26,East,88,0.0,8.0,44,0.00,,CLR,0.00,VWS V14.01,2013-02-22 03:47:00,
2013-02-21 22:52:00,40.9,21.2,30.26,East,95,3.0,8.0,45,0.00,,CLR,0.00,VWS V14.01,2013-02-22 03:52:00,
2013-02-21 22:57:00,40.7,21.0,30.27,ENE,63,1.0,8.0,45,0.00,,CLR,0.00,VWS V14.01,2013-02-22 03:57:00,
2013-02-21 23:00:00,40.7,21.0,30.27,East,87,0.0,8.0,45,0.00,,BKN049,0.00,VWS V14.01,2013-02-22 04:00:00,
2013-02-21 23:02:00,40.6,20.9,30.27,ESE,111,2.0,5.0,45,0.00,,CLR,0.00,VWS V14.01,2013-02-22 04:02:00,
2013-02-21 23:07:00,40.6,20.9,30.26,East,82,3.0,6.0,45,0.00,,CLR,0.00,VWS V14.01,2013-02-22 04:07:00,
2013-02-21 23:12:00,40.6,20.9,30.27,SE,124,4.0,6.0,45,0.00,,CLR,0.00,VWS V14.01,2013-02-22 04:12:00,
2013-02-21 23:17:00,40.5,21.4,30.26,ESE,123,0.0,6.0,46,0.00,,CLR,0.00,VWS V14.01,2013-02-22 04:17:00,
2013-02-21 23:22:00,40.4,20.8,30.26,East,84,0.0,6.0,45,0.00,,CLR,0.00,VWS V14.01,2013-02-22 04:22:00,
2013-02-21 23:27:00,40.2,21.1,30.27,ENE,59,0.0,6.0,46,0.00,,CLR,0.00,VWS V14.01,2013-02-22 04:27:00,
2013-02-21 23:30:00,40.2,22.1,30.27,ENE,59,0.0,6.0,48,0.00,,BKN049,0.00,VWS V14.01,2013-02-22 04:30:00,
2013-02-21 23:32:00,40.2,22.1,30.27,ENE,59,0.0,0.0,48,0.00,,CLR,0.00,VWS V14.01,2013-02-22 04:32:00,
2013-02-21 23:37:00,40.0,22.4,30.26,NNE,24,0.0,1.0,49,0.00,,CLR,0.00,VWS V14.01,2013-02-22 04:37:00,
2013-02-21 23:42:00,39.8,22.2,30.27,SSE,158,0.0,2.0,49,0.00,,CLR,0.00,VWS V14.01,2013-02-22 04:42:00,
2013-02-21 23:47:00,39.7,22.1,30.27,SSE,157,0.0,2.0,49,0.00,,CLR,0.00,VWS V14.01,2013-02-22 04:47:00,
2013-02-21 23:52:00,39.6,23.4,30.27,ESE,111,0.0,2.0,52,0.00,,CLR,0.00,VWS V14.01,2013-02-22 04:52:00,
2013-02-21 23:58:00,39.5,22.9,30.27,NNE,13,0.0,3.0,51,0.00,,CLR,0.00,VWS V14.01,2013-02-22 04:58:00,